createdAt,value
2018-10-11T00:02:20.607Z,82.36
2018-10-11T00:04:48.550Z,82.56
2018-10-11T00:07:16.543Z,82.22
2018-10-11T00:09:44.417Z,82.20
2018-10-11T00:12:12.317Z,82.00
2018-10-11T00:14:40.269Z,81.88
2018-10-11T00:17:08.219Z,81.58
2018-10-11T00:19:36.219Z,81.83
2018-10-11T00:22:04.180Z,81.51
2018-10-11T00:24:32.090Z,81.95
2018-10-11T00:26:59.827Z,81.97
2018-10-11T00:29:27.557Z,82.31
2018-10-11T00:31:55.291Z,82.38
2018-10-11T00:34:23.247Z,82.68
2018-10-11T00:36:52.080Z,82.83
2018-10-11T00:39:19.869Z,82.93
2018-10-11T00:41:47.611Z,82.63
2018-10-11T00:44:16.078Z,82.80
2018-10-11T00:46:45.286Z,82.67
2018-10-11T00:49:13.296Z,82.94
2018-10-11T00:51:41.485Z,83.03
2018-10-11T00:54:09.704Z,83.19
2018-10-11T00:56:37.667Z,83.00
2018-10-11T00:59:05.766Z,83.50
2018-10-11T01:01:33.469Z,82.87
2018-10-11T01:04:01.206Z,83.56
2018-10-11T01:06:29.000Z,83.58
2018-10-11T01:08:57.417Z,83.83
2018-10-11T01:11:25.139Z,83.66
2018-10-11T01:13:52.881Z,84.11
2018-10-11T01:16:20.665Z,84.13
2018-10-11T01:18:48.359Z,83.95
2018-10-11T01:21:16.185Z,83.89
2018-10-11T01:23:43.907Z,84.35
2018-10-11T01:26:11.649Z,84.25
2018-10-11T01:28:39.373Z,84.79
2018-10-11T01:31:12.965Z,84.30
2018-10-11T01:33:40.729Z,84.66
2018-10-11T01:36:08.479Z,84.69
2018-10-11T01:38:36.208Z,84.94
2018-10-11T01:41:04.068Z,84.82
2018-10-11T01:43:31.780Z,85.05
2018-10-11T01:45:59.558Z,85.36
2018-10-11T01:48:27.389Z,85.27
2018-10-11T01:50:55.136Z,85.63
2018-10-11T01:53:22.931Z,85.24
2018-10-11T01:55:50.628Z,85.55
2018-10-11T01:58:18.948Z,85.36
2018-10-11T02:00:46.750Z,85.05
2018-10-11T02:03:14.481Z,86.27
2018-10-11T02:05:42.272Z,86.46
2018-10-11T02:08:09.971Z,86.96
2018-10-11T02:10:37.701Z,87.51
2018-10-11T02:13:05.830Z,86.66
2018-10-11T02:15:33.534Z,86.10
2018-10-11T02:18:01.234Z,86.04
2018-10-11T02:20:28.967Z,87.26
2018-10-11T02:22:56.962Z,87.49
2018-10-11T02:25:24.669Z,87.89
2018-10-11T02:27:52.409Z,87.83
2018-10-11T02:30:20.120Z,87.32
2018-10-11T02:32:47.844Z,86.91
2018-10-11T02:35:15.558Z,87.21
2018-10-11T02:37:43.321Z,87.42
2018-10-11T02:40:11.482Z,87.49
2018-10-11T02:42:39.214Z,87.55
2018-10-11T02:45:07.493Z,87.58
2018-10-11T02:47:35.233Z,87.24
2018-10-11T02:50:03.030Z,87.24
2018-10-11T02:52:30.735Z,87.30
2018-10-11T02:54:58.547Z,87.50
2018-10-11T02:57:37.603Z,87.50
2018-10-11T03:00:05.536Z,88.37
2018-10-11T03:02:34.792Z,88.72
2018-10-11T03:05:02.709Z,88.25
2018-10-11T03:07:30.607Z,88.34
2018-10-11T03:09:58.700Z,87.59
2018-10-11T03:12:26.431Z,88.25
2018-10-11T03:14:54.255Z,88.58
2018-10-11T03:17:22.038Z,89.12
2018-10-11T03:19:49.831Z,89.12
2018-10-11T03:22:17.595Z,88.78
2018-10-11T03:24:45.408Z,88.02
2018-10-11T03:27:13.169Z,88.69
2018-10-11T03:29:40.863Z,88.76
2018-10-11T03:32:08.621Z,88.87
2018-10-11T03:34:36.463Z,89.46
2018-10-11T03:37:04.136Z,89.22
2018-10-11T03:39:31.848Z,89.07
2018-10-11T03:42:00.214Z,88.71
2018-10-11T03:44:28.460Z,88.26
2018-10-11T03:46:56.284Z,88.72
2018-10-11T03:49:24.293Z,87.97
2018-10-11T03:51:52.026Z,88.19
2018-10-11T03:54:19.757Z,88.33
2018-10-11T03:56:47.456Z,88.34
2018-10-11T03:59:15.279Z,88.14
2018-10-11T04:01:43.030Z,88.23
2018-10-11T04:04:10.766Z,87.99
2018-10-11T04:06:38.552Z,88.40
2018-10-11T04:09:06.890Z,88.63
2018-10-11T04:11:34.591Z,88.43
2018-10-11T04:14:02.395Z,88.55
2018-10-11T04:16:30.170Z,89.18
2018-10-11T04:18:57.903Z,88.69
2018-10-11T04:21:25.583Z,88.69
2018-10-11T04:23:53.324Z,88.77
2018-10-11T04:26:21.055Z,88.75
2018-10-11T04:28:48.759Z,89.21
2018-10-11T04:31:16.493Z,88.90
2018-10-11T04:33:44.192Z,89.01
2018-10-11T04:36:12.746Z,88.82
2018-10-11T04:38:41.402Z,88.85
2018-10-11T04:41:09.145Z,88.49
2018-10-11T04:43:36.881Z,88.09
2018-10-11T04:46:04.678Z,88.39
2018-10-11T04:48:32.395Z,88.25
2018-10-11T04:51:00.113Z,87.92
2018-10-11T04:53:27.865Z,87.85
2018-10-11T04:55:55.615Z,88.98
2018-10-11T04:58:23.385Z,88.46
2018-10-11T05:00:51.151Z,88.03
2018-10-11T05:03:18.905Z,88.08
2018-10-11T05:05:46.647Z,87.92
2018-10-11T05:08:14.402Z,88.30
2018-10-11T05:10:43.210Z,88.02
2018-10-11T05:13:11.117Z,87.38
2018-10-11T05:15:40.282Z,88.11
2018-10-11T05:18:08.697Z,87.87
2018-10-11T05:20:36.511Z,88.21
2018-10-11T05:23:04.301Z,88.89
2018-10-11T05:25:33.021Z,89.31
2018-10-11T05:28:00.835Z,88.47
2018-10-11T05:30:28.615Z,88.00
2018-10-11T05:32:56.992Z,88.35
2018-10-11T05:35:24.817Z,89.10
2018-10-11T05:37:52.894Z,89.50
2018-10-11T05:40:20.729Z,88.96
2018-10-11T05:42:48.744Z,89.23
2018-10-11T05:45:19.236Z,89.64
2018-10-11T05:47:47.617Z,89.97
2018-10-11T05:50:15.570Z,90.17
2018-10-11T05:52:44.077Z,90.17
2018-10-11T05:55:12.269Z,89.75
2018-10-11T05:57:40.353Z,90.58
2018-10-11T06:00:09.324Z,90.97
2018-10-11T06:02:47.144Z,91.31
2018-10-11T06:05:14.944Z,90.75
2018-10-11T06:07:42.780Z,90.33
2018-10-11T06:10:10.682Z,90.05
2018-10-11T06:12:38.610Z,90.29
2018-10-11T06:15:06.706Z,90.30
2018-10-11T06:17:34.607Z,90.12
2018-10-11T06:20:02.489Z,90.25
2018-10-11T06:22:30.397Z,90.29
2018-10-11T06:24:58.424Z,90.44
2018-10-11T06:27:26.370Z,90.38
2018-10-11T06:29:54.230Z,90.96
2018-10-11T06:32:22.270Z,91.47
2018-10-11T06:34:50.202Z,91.31
2018-10-11T06:37:18.154Z,91.60
2018-10-11T06:39:46.119Z,91.13
2018-10-11T06:42:14.054Z,91.92
2018-10-11T06:44:41.934Z,92.30
2018-10-11T06:47:09.807Z,92.24
2018-10-11T06:49:37.742Z,92.13
2018-10-11T06:52:05.627Z,91.80
2018-10-11T06:54:33.565Z,91.57
2018-10-11T06:57:01.346Z,92.20
2018-10-11T06:59:29.209Z,92.24
2018-10-11T07:01:57.035Z,92.52
2018-10-11T07:04:24.803Z,92.45
2018-10-11T07:06:52.613Z,92.96
2018-10-11T07:09:20.486Z,93.45
2018-10-11T07:11:48.555Z,93.26
2018-10-11T07:14:16.412Z,92.64
2018-10-11T07:16:44.143Z,92.83
2018-10-11T07:19:12.019Z,92.56
2018-10-11T07:21:39.848Z,91.96
2018-10-11T07:24:07.636Z,92.37
2018-10-11T07:26:35.439Z,92.05
2018-10-11T07:29:03.311Z,92.81
2018-10-11T07:31:31.115Z,92.33
2018-10-11T07:33:58.944Z,90.23
2018-10-11T07:36:26.717Z,89.32
2018-10-11T07:38:54.478Z,88.59
2018-10-11T07:41:22.318Z,87.11
2018-10-11T07:43:50.069Z,85.31
2018-10-11T07:46:17.865Z,84.83
2018-10-11T07:48:45.693Z,84.61
2018-10-11T07:51:13.500Z,83.79
2018-10-11T07:53:41.249Z,83.43
2018-10-11T07:56:09.113Z,81.91
2018-10-11T07:58:36.873Z,80.67
2018-10-11T08:01:04.668Z,80.93
2018-10-11T08:03:32.468Z,80.01
2018-10-11T08:06:01.224Z,76.94
2018-10-11T08:08:29.060Z,78.15
2018-10-11T08:10:56.907Z,78.06
2018-10-11T08:13:24.667Z,77.90
2018-10-11T08:15:52.405Z,77.69
2018-10-11T08:18:20.226Z,77.61
2018-10-11T08:20:47.989Z,76.22
2018-10-11T08:23:15.780Z,75.66
2018-10-11T08:25:44.047Z,72.49
2018-10-11T08:28:11.333Z,73.25
2018-10-11T08:30:39.104Z,73.02
2018-10-11T08:33:06.886Z,72.83
2018-10-11T08:35:34.640Z,71.61
2018-10-11T08:38:02.504Z,73.37
2018-10-11T08:40:30.190Z,73.62
2018-10-11T08:42:57.941Z,73.33
2018-10-11T08:45:25.708Z,73.07
2018-10-11T08:47:53.499Z,71.67
2018-10-11T08:50:21.323Z,70.38
2018-10-11T08:52:49.034Z,68.95
2018-10-11T08:55:16.833Z,65.85
2018-10-11T08:57:44.759Z,64.04
2018-10-11T09:00:12.526Z,64.30
2018-10-11T09:02:40.287Z,64.45
2018-10-11T09:05:08.178Z,62.32
2018-10-11T09:07:35.946Z,62.92
2018-10-11T09:10:03.913Z,63.26
2018-10-11T09:12:31.713Z,61.48
2018-10-11T09:14:59.456Z,61.15
2018-10-11T09:17:27.237Z,62.36
2018-10-11T09:19:54.999Z,63.17
2018-10-11T09:22:22.761Z,62.24
2018-10-11T09:24:50.526Z,61.34
2018-10-11T09:27:18.294Z,61.45
2018-10-11T09:29:46.104Z,62.42
2018-10-11T09:32:13.837Z,61.95
2018-10-11T09:34:41.616Z,61.64
2018-10-11T09:37:09.413Z,59.16
2018-10-11T09:39:37.138Z,59.67
2018-10-11T09:42:04.916Z,59.60
2018-10-11T09:44:32.785Z,59.98
2018-10-11T09:47:00.541Z,59.65
2018-10-11T09:49:28.261Z,58.67
2018-10-11T09:51:56.008Z,58.92
2018-10-11T09:54:23.798Z,59.53
2018-10-11T09:57:24.721Z,58.75
2018-10-11T09:59:52.559Z,60.24
2018-10-11T10:02:20.878Z,61.42
2018-10-11T10:04:49.825Z,60.82
2018-10-11T10:07:17.640Z,59.37
2018-10-11T10:09:46.001Z,59.23
2018-10-11T10:12:14.095Z,58.86
2018-10-11T10:14:42.685Z,59.64
2018-10-11T10:17:10.547Z,59.73
2018-10-11T10:19:38.307Z,59.08
2018-10-11T10:22:06.181Z,58.90
2018-10-11T10:24:34.040Z,55.32
2018-10-11T10:27:02.129Z,56.09
2018-10-11T10:29:29.898Z,56.14
2018-10-11T10:31:58.157Z,55.84
2018-10-11T10:34:26.163Z,54.85
2018-10-11T10:36:53.967Z,54.79
2018-10-11T10:39:22.009Z,52.94
2018-10-11T10:41:49.743Z,53.02
2018-10-11T10:44:17.512Z,51.13
2018-10-11T10:46:45.316Z,52.52
2018-10-11T10:49:13.148Z,51.79
2018-10-11T10:51:40.891Z,51.77
2018-10-11T10:54:14.405Z,51.63
2018-10-11T10:56:42.134Z,51.91
2018-10-11T10:59:09.850Z,50.90
2018-10-11T11:01:37.630Z,51.77
2018-10-11T11:04:05.380Z,52.54
2018-10-11T11:06:33.142Z,52.55
2018-10-11T11:09:00.901Z,51.74
2018-10-11T11:11:28.680Z,51.41
2018-10-11T11:13:56.428Z,52.48
2018-10-11T11:16:24.216Z,51.39
2018-10-11T11:18:52.940Z,52.02
2018-10-11T11:21:20.690Z,51.48
2018-10-11T11:23:48.423Z,52.51
2018-10-11T11:26:16.236Z,52.87
2018-10-11T11:28:43.983Z,52.36
2018-10-11T11:31:11.787Z,53.29
2018-10-11T11:33:39.526Z,53.17
2018-10-11T11:36:07.260Z,53.30
2018-10-11T11:38:35.009Z,54.22
2018-10-11T11:41:02.764Z,54.42
2018-10-11T11:43:30.552Z,54.32
2018-10-11T11:45:58.435Z,55.46
2018-10-11T11:48:26.212Z,55.42
2018-10-11T11:50:53.959Z,55.43
2018-10-11T11:53:21.687Z,55.78
2018-10-11T11:55:49.473Z,56.45
2018-10-11T11:58:17.214Z,57.12
2018-10-11T12:00:45.072Z,57.02
2018-10-11T12:03:12.818Z,57.94
2018-10-11T12:05:40.601Z,58.33
2018-10-11T12:08:08.408Z,58.67
2018-10-11T12:10:36.247Z,60.28
2018-10-11T12:13:07.305Z,60.92
2018-10-11T12:15:35.758Z,61.07
2018-10-11T12:18:04.438Z,61.95
2018-10-11T12:20:34.067Z,62.46
2018-10-11T12:23:03.047Z,63.42
2018-10-11T12:25:31.063Z,63.81
2018-10-11T12:27:58.803Z,64.77
2018-10-11T12:30:26.545Z,64.55
2018-10-11T12:32:54.369Z,65.53
2018-10-11T12:35:23.173Z,65.36
2018-10-11T12:37:50.999Z,66.02
2018-10-11T12:40:18.980Z,65.55
2018-10-11T12:42:46.736Z,66.15
2018-10-11T12:45:15.181Z,66.15
2018-10-11T12:47:42.993Z,66.75
2018-10-11T12:50:11.438Z,66.87
2018-10-11T12:52:39.318Z,67.48
2018-10-11T12:55:07.717Z,67.43
2018-10-11T12:57:35.380Z,68.68
2018-10-11T13:00:03.370Z,67.81
2018-10-11T13:02:31.127Z,69.92
2018-10-11T13:04:58.874Z,68.48
2018-10-11T13:07:26.649Z,69.09
2018-10-11T13:09:54.377Z,70.99
2018-10-11T13:12:22.100Z,69.76
2018-10-11T13:14:49.857Z,72.12
2018-10-11T13:17:17.627Z,71.91
2018-10-11T13:19:45.340Z,72.67
2018-10-11T13:22:13.233Z,72.25
2018-10-11T13:24:45.997Z,72.94
2018-10-11T13:27:08.859Z,73.31
2018-10-11T13:29:36.643Z,73.77
2018-10-11T13:32:04.404Z,74.17
2018-10-11T13:34:32.250Z,75.07
2018-10-11T13:37:00.006Z,75.78
2018-10-11T13:39:27.752Z,76.37
2018-10-11T13:41:55.517Z,77.87
2018-10-11T13:44:23.311Z,78.85
2018-10-11T13:46:51.066Z,77.95
2018-10-11T13:49:18.909Z,78.71
2018-10-11T13:51:46.695Z,79.63
2018-10-11T13:54:16.923Z,79.99
2018-10-11T13:56:45.082Z,80.54
2018-10-11T13:59:14.916Z,80.46
2018-10-11T14:01:40.712Z,81.06
2018-10-11T14:04:08.516Z,80.28
2018-10-11T14:06:36.327Z,82.41
2018-10-11T14:09:06.971Z,81.99
2018-10-11T14:11:34.771Z,82.75
2018-10-11T14:14:02.594Z,83.07
2018-10-11T14:16:30.359Z,84.25
2018-10-11T14:18:58.134Z,84.18
2018-10-11T14:21:25.932Z,85.02
2018-10-11T14:23:53.849Z,83.45
2018-10-11T14:26:21.487Z,83.51
2018-10-11T14:28:49.638Z,83.67
2018-10-11T14:31:17.416Z,83.85
2018-10-11T14:33:45.198Z,84.71
2018-10-11T14:36:13.029Z,85.71
2018-10-11T14:38:40.842Z,85.32
2018-10-11T14:41:08.629Z,85.35
2018-10-11T14:43:36.387Z,85.54
2018-10-11T14:46:04.257Z,85.89
2018-10-11T14:48:32.038Z,86.39
2018-10-11T14:50:59.871Z,87.33
2018-10-11T14:53:27.631Z,86.89
2018-10-11T14:55:55.385Z,87.04
2018-10-11T14:58:23.134Z,86.98
2018-10-11T15:00:50.929Z,87.16
2018-10-11T15:03:18.749Z,86.29
2018-10-11T15:05:46.488Z,87.65
2018-10-11T15:08:14.276Z,87.41
2018-10-11T15:10:42.086Z,87.90
2018-10-11T15:13:09.803Z,88.07
2018-10-11T15:15:37.634Z,87.53
2018-10-11T15:18:05.840Z,87.66
2018-10-11T15:20:33.594Z,88.45
2018-10-11T15:23:01.388Z,88.02
2018-10-11T15:25:29.140Z,88.04
2018-10-11T15:27:56.906Z,88.56
2018-10-11T15:30:24.718Z,88.77
2018-10-11T15:32:52.476Z,89.17
2018-10-11T15:35:20.208Z,88.85
2018-10-11T15:37:48.640Z,88.68
2018-10-11T15:40:16.451Z,88.29
2018-10-11T15:42:44.289Z,88.48
2018-10-11T15:45:12.745Z,87.93
2018-10-11T15:47:40.639Z,87.68
2018-10-11T15:50:08.612Z,87.88
2018-10-11T15:52:36.597Z,88.74
2018-10-11T15:55:04.474Z,88.24
2018-10-11T15:57:32.276Z,89.07
2018-10-11T16:00:00.106Z,88.97
2018-10-11T16:02:27.936Z,89.59
2018-10-11T16:04:55.824Z,89.35
2018-10-11T16:07:23.709Z,88.10
2018-10-11T16:09:51.525Z,88.62
2018-10-11T16:12:19.448Z,89.10
2018-10-11T16:14:47.353Z,88.19
2018-10-11T16:17:15.314Z,88.76
2018-10-11T16:19:43.113Z,89.34
2018-10-11T16:22:10.954Z,89.50
2018-10-11T16:24:38.801Z,89.62
2018-10-11T16:27:06.769Z,89.69
2018-10-11T16:29:34.596Z,89.57
2018-10-11T16:32:02.368Z,89.70
2018-10-11T16:34:30.164Z,89.86
2018-10-11T16:36:58.015Z,89.53
2018-10-11T16:39:25.833Z,90.02
2018-10-11T16:41:53.655Z,90.18
2018-10-11T16:44:21.473Z,90.57
2018-10-11T16:46:49.287Z,90.16
2018-10-11T16:49:17.142Z,90.29
2018-10-11T16:51:44.940Z,90.39
2018-10-11T16:54:12.776Z,90.37
2018-10-11T16:56:41.585Z,90.28
2018-10-11T16:59:10.727Z,89.82
2018-10-11T17:01:38.600Z,90.58
2018-10-11T17:04:06.534Z,90.90
2018-10-11T17:06:34.938Z,90.54
2018-10-11T17:09:04.589Z,90.39
2018-10-11T17:11:33.661Z,90.77
2018-10-11T17:14:01.548Z,90.86
2018-10-11T17:16:29.320Z,90.97
2018-10-11T17:18:57.148Z,90.93
2018-10-11T17:21:24.960Z,91.13
2018-10-11T17:23:52.760Z,90.23
2018-10-11T17:26:21.526Z,90.30
2018-10-11T17:28:49.465Z,90.22
2018-10-11T17:31:17.344Z,89.92
2018-10-11T17:33:45.104Z,91.47
2018-10-11T17:36:13.075Z,91.30
2018-10-11T17:38:40.931Z,90.98
2018-10-11T17:41:08.693Z,91.24
2018-10-11T17:43:36.503Z,91.46
2018-10-11T17:46:04.380Z,91.06
2018-10-11T17:48:32.197Z,91.31
2018-10-11T17:50:59.954Z,91.26
2018-10-11T17:53:27.706Z,91.83
2018-10-11T17:55:55.575Z,91.85
2018-10-11T17:58:23.336Z,91.87
2018-10-11T18:00:51.152Z,92.45
2018-10-11T18:03:20.170Z,92.22
2018-10-11T18:05:48.365Z,92.03
2018-10-11T18:08:17.895Z,92.80
2018-10-11T18:10:46.005Z,92.91
2018-10-11T18:13:14.717Z,92.19
2018-10-11T18:15:44.737Z,92.32
2018-10-11T18:18:13.240Z,92.65
2018-10-11T18:20:41.047Z,92.87
2018-10-11T18:23:10.530Z,92.95
2018-10-11T18:25:39.772Z,93.47
2018-10-11T18:28:07.790Z,93.24
2018-10-11T18:30:35.927Z,93.41
2018-10-11T18:33:03.803Z,93.67
2018-10-11T18:35:32.737Z,93.54
2018-10-11T18:38:00.821Z,93.04
2018-10-11T18:40:28.629Z,93.10
2018-10-11T18:42:56.430Z,92.75
2018-10-11T18:45:24.273Z,92.94
2018-10-11T18:47:52.118Z,92.98
2018-10-11T18:50:19.990Z,93.34
2018-10-11T18:52:47.832Z,93.43
2018-10-11T18:55:15.637Z,92.93
2018-10-11T18:57:43.548Z,93.51
2018-10-11T19:00:11.402Z,92.80
2018-10-11T19:02:39.223Z,93.05
2018-10-11T19:05:10.216Z,92.83
2018-10-11T19:07:38.410Z,93.14
2018-10-11T19:10:06.213Z,92.90
2018-10-11T19:12:34.051Z,92.90
2018-10-11T19:15:01.934Z,92.88
2018-10-11T19:17:29.752Z,93.01
2018-10-11T19:19:57.509Z,92.92
2018-10-11T19:22:26.516Z,92.89
2018-10-11T19:24:54.344Z,92.86
2018-10-11T19:27:22.301Z,92.92
2018-10-11T19:29:50.114Z,93.20
2018-10-11T19:32:18.057Z,93.46
2018-10-11T19:34:45.889Z,93.30
2018-10-11T19:37:13.700Z,93.37
2018-10-11T19:39:41.459Z,93.07
2018-10-11T19:42:09.788Z,93.17
2018-10-11T19:44:37.748Z,93.01
2018-10-11T19:47:05.616Z,92.60
2018-10-11T19:49:33.486Z,92.79
2018-10-11T19:52:01.328Z,93.16
2018-10-11T19:54:29.120Z,93.08
2018-10-11T19:56:56.937Z,92.89
2018-10-11T19:59:25.845Z,92.81
2018-10-11T20:01:53.808Z,93.06
2018-10-11T20:04:21.654Z,92.55
2018-10-11T20:06:49.507Z,93.12
2018-10-11T20:09:18.120Z,92.80
2018-10-11T20:11:45.960Z,93.39
2018-10-11T20:14:13.772Z,92.94
2018-10-11T20:16:41.891Z,92.72
2018-10-11T20:19:09.732Z,92.55
2018-10-11T20:21:37.661Z,92.45
2018-10-11T20:24:08.439Z,92.53
2018-10-11T20:26:36.365Z,92.43
2018-10-11T20:29:04.457Z,92.97
2018-10-11T20:31:33.149Z,92.57
2018-10-11T20:34:01.630Z,93.30
2018-10-11T20:36:29.752Z,92.84
2018-10-11T20:38:57.626Z,93.19
2018-10-11T20:41:25.558Z,92.89
2018-10-11T20:43:53.523Z,93.13
2018-10-11T20:46:21.364Z,93.21
2018-10-11T20:48:49.810Z,93.23
2018-10-11T20:51:17.745Z,93.40
2018-10-11T20:53:45.708Z,93.52
2018-10-11T20:56:13.599Z,93.34
2018-10-11T20:58:41.469Z,93.93
2018-10-11T21:01:09.385Z,93.54
2018-10-11T21:03:37.228Z,94.07
2018-10-11T21:06:05.724Z,94.23
2018-10-11T21:08:33.597Z,94.01
2018-10-11T21:11:01.524Z,94.50
2018-10-11T21:13:29.392Z,94.08
2018-10-11T21:15:57.466Z,94.11
2018-10-11T21:18:25.380Z,94.38
2018-10-11T21:20:53.322Z,94.21
2018-10-11T21:23:21.197Z,94.16
2018-10-11T21:25:49.292Z,94.29
2018-10-11T21:28:17.299Z,94.30
2018-10-11T21:30:45.120Z,94.10
2018-10-11T21:33:13.100Z,94.57
2018-10-11T21:35:41.024Z,94.46
2018-10-11T21:38:08.968Z,94.15
2018-10-11T21:40:36.959Z,94.52
2018-10-11T21:43:04.945Z,94.39
2018-10-11T21:45:32.894Z,94.65
2018-10-11T21:48:00.732Z,95.09
2018-10-11T21:50:28.856Z,95.07
2018-10-11T21:52:56.767Z,95.11
2018-10-11T21:55:24.673Z,95.19
2018-10-11T21:57:52.504Z,95.00
2018-10-11T22:00:24.889Z,95.75
2018-10-11T22:02:53.164Z,95.51
2018-10-11T22:05:21.349Z,95.77
2018-10-11T22:07:50.116Z,95.56
2018-10-11T22:10:18.042Z,95.47
2018-10-11T22:12:45.920Z,95.78
2018-10-11T22:15:13.924Z,95.81
2018-10-11T22:17:41.999Z,95.84
2018-10-11T22:20:09.890Z,96.32
2018-10-11T22:22:37.952Z,95.74
2018-10-11T22:25:06.603Z,95.98
2018-10-11T22:27:34.547Z,96.00
2018-10-11T22:30:02.410Z,96.34
2018-10-11T22:32:30.272Z,96.54
2018-10-11T22:34:58.131Z,96.34
2018-10-11T22:37:26.013Z,96.29
2018-10-11T22:39:53.853Z,96.07
2018-10-11T22:42:21.665Z,96.37
2018-10-11T22:44:49.539Z,96.10
2018-10-11T22:47:17.546Z,95.84
2018-10-11T22:49:45.419Z,96.23
2018-10-11T22:52:13.428Z,96.28
2018-10-11T22:54:41.318Z,95.97
2018-10-11T22:57:09.752Z,96.17
2018-10-11T22:59:38.658Z,95.97
2018-10-11T23:02:06.609Z,95.99
2018-10-11T23:04:34.457Z,95.82
2018-10-11T23:07:02.304Z,95.87
2018-10-11T23:09:30.129Z,95.75
2018-10-11T23:11:58.037Z,96.17
2018-10-11T23:14:25.926Z,96.05
2018-10-11T23:16:53.713Z,95.98
2018-10-11T23:19:21.556Z,95.79
2018-10-11T23:21:49.669Z,95.94
2018-10-11T23:24:17.620Z,95.58
2018-10-11T23:26:45.496Z,95.86
2018-10-11T23:29:13.368Z,96.08
2018-10-11T23:31:41.179Z,95.98
2018-10-11T23:34:09.027Z,95.90
2018-10-11T23:36:36.927Z,95.65
2018-10-11T23:39:07.403Z,95.60
2018-10-11T23:41:35.274Z,95.80
2018-10-11T23:44:03.186Z,96.09
2018-10-11T23:46:31.081Z,95.60
2018-10-11T23:48:58.937Z,95.60
2018-10-11T23:51:26.687Z,95.89
2018-10-11T23:53:54.516Z,95.63
2018-10-11T23:56:22.312Z,95.66
2018-10-11T23:58:50.221Z,95.55
